Prairie City, Iowa
Current Conditions -  °F | °C
As of 1:15 PM on Thursday 30 Oct 2014 (Local Time) from KTNU Reporting Station
Few Clouds Few Clouds  
Wind Chill: 57°   Ceiling: Unl
Heat Index: 57°   Visibility: 8mi
Dew Point: 39°   Wind: 8mph
Humidity: 51%   Direction: 90°E
Pressure: 30.01"   Gusts: NA
Location:  41.6°N, 93.24°W
Report Text: KTNU 301815Z AUTO 09007KT 8SM FEW110 14/04 A3001 RMK AO2
Loading
Personal Weather Stations






























Interactive Weather Map New forecast layout! Learn more

10-Day Weather Forecast

Advertisements
Track Severe Weather on mobile